Latest Weather Observations for Nuriootpa

IDS60801

Issued at 3:01 am CST Monday 2 May 2016 (issued every 30 minutes, with the page automatically refreshed every 10 minutes)

About weather observations | Map of weather stations | Latest weather observations for SA | Other Formats
Station Details ID: 023373 Name: NURIOOTPA PIRSA Lat: -34.48 Lon: 139.01 Height: 275.0 m
Data from the previous 72 hours. | See also: Recent months at Nuriootpa
Date/Time
CST
Temp
°C
App
Temp
°C
Dew
Point
Rel
Hum
%
Delta-T
°C
Wind Press
QNH
hPa
Press
MSL
hPa
Rain
since 9 am
mm
Dir
 
Spd
km/h
Gust
km/h
Spd
kts
Gust
kts
02/03:00am 9.5 7.9 6.3 80 1.5 ENE 4 6 2 3 1015.8 1015.8 0.0
02/02:30am 9.2 8.3 6.0 80 1.5 CALM 0 0 0 0 1016.3 1016.3 0.0
02/02:00am 9.0 6.7 5.5 79 1.6 ENE 7 9 4 5 1016.5 1016.5 0.0
02/01:30am 8.6 7.6 5.5 81 1.4 CALM 0 0 0 0 1016.8 1016.8 0.0
02/01:00am 8.6 6.4 5.1 79 1.6 NNE 6 7 3 4 1016.8 1016.8 0.0
02/12:30am 8.1 5.6 4.8 80 1.5 NNE 7 11 4 6 1017.1 1017.1 0.0
02/12:00am 7.1 4.6 4.6 84 1.1 NE 7 9 4 5 1017.3 1017.3 0.0
 
Date/Time
CST
Temp
°C
App
Temp
°C
Dew
Point
Rel
Hum
%
Delta-T
°C
Wind Press
QNH
hPa
Press
MSL
hPa
Rain
since 9 am
mm
Dir
 
Spd
km/h
Gust
km/h
Spd
kts
Gust
kts
01/11:30pm 6.1 3.4 3.8 85 1.0 NE 7 9 4 5 1017.8 1017.8 0.0
01/11:00pm 6.0 3.0 3.9 86 0.9 NE 9 9 5 5 1017.8 1017.8 0.0
01/10:30pm 5.9 3.3 3.3 83 1.1 ENE 6 9 3 5 1018.2 1018.1 0.0
01/10:00pm 6.9 4.4 3.9 81 1.3 ENE 6 7 3 4 1018.5 1018.4 0.0
01/09:30pm 7.4 4.9 3.7 77 1.6 N 6 6 3 3 1018.6 1018.6 0.0
01/09:00pm 9.5 7.0 4.9 73 2.1 WNW 7 9 4 5 1018.5 1018.4 0.0
01/08:30pm 10.9 7.9 4.3 64 3.0 W 9 11 5 6 1018.4 1018.3 0.0
01/08:00pm 11.3 8.7 4.3 62 3.2 NW 7 9 4 5 1018.3 1018.2 0.0
01/07:30pm 12.1 9.1 4.2 58 3.6 W 9 11 5 6 1018.4 1018.3 0.0
01/07:00pm 13.3 10.2 3.7 52 4.4 W 9 13 5 7 1018.2 1018.1 0.0
01/06:30pm 13.6 10.1 3.5 50 4.6 WSW 11 13 6 7 1018.1 1018.0 0.0
01/06:00pm 13.9 10.8 3.4 49 4.8 WSW 9 15 5 8 1017.8 1017.8 0.0
01/05:30pm 13.9 10.9 4.2 52 4.5 W 9 13 5 7 1017.7 1017.7 0.0
01/05:00pm 14.5 10.2 3.1 46 5.2 WSW 15 22 8 12 1017.5 1017.5 0.0
01/04:30pm 15.4 10.6 2.7 42 5.8 W 17 24 9 13 1017.3 1017.3 0.0
01/04:00pm 16.1 10.7 1.2 36 6.6 WSW 19 26 10 14 1017.2 1017.2 0.0
01/03:30pm 16.4 10.9 1.7 37 6.6 SW 20 39 11 21 1017.1 1017.1 0.0
01/03:00pm 15.1 10.1 3.4 45 5.4 SW 19 32 10 17 1017.0 1017.0 0.0
01/02:30pm 15.0 9.8 3.8 47 5.2 SW 20 30 11 16 1016.7 1016.7 0.0
01/02:00pm 15.4 10.2 3.5 45 5.5 SW 20 26 11 14 1016.7 1016.7 0.0
01/01:30pm 16.1 10.9 3.7 43 5.8 WSW 20 32 11 17 1016.8 1016.8 0.0
01/01:00pm 15.8 10.4 2.7 41 6.0 SW 20 32 11 17 1016.7 1016.7 0.0
01/12:30pm 16.3 10.5 2.5 39 6.3 WSW 22 41 12 22 1017.0 1017.0 0.0
01/12:00pm 16.4 10.6 2.4 39 6.4 SW 22 33 12 18 1016.8 1016.8 0.0
01/11:30am 15.0 8.6 3.2 45 5.4 SW 26 35 14 19 1017.2 1017.2 0.0
01/11:00am 15.3 8.6 3.7 46 5.4 WSW 28 43 15 23 1017.0 1017.0 0.0
01/10:30am 14.2 7.9 5.9 57 4.0 WSW 28 39 15 21 1017.0 1017.0 0.0
01/10:00am 13.8 6.6 5.1 55 4.1 SW 32 43 17 23 1017.0 1017.0 0.0
01/09:30am 13.8 6.4 5.1 55 4.1 WSW 33 52 18 28 1016.7 1016.7 0.0
01/09:07am 13.6 6.7 6.6 62 3.4 WSW 32 50 17 27 1016.1 1015.7 0.0
01/09:00am 13.4 6.9 6.6 63 3.3 WSW 30 44 16 24 1015.8 1015.4 0.0
01/08:30am 12.6 5.0 5.7 63 3.3 WSW 35 57 19 31 1015.0 1014.6 0.0
01/08:03am 12.0 4.1 6.1 67 2.8 WSW 37 59 20 32 1014.7 1014.3 0.0
01/08:00am 11.9 4.3 6.0 67 2.8 WSW 35 48 19 26 1014.8 1014.4 0.0
01/07:37am 11.4 4.5 6.6 72 2.3 W 32 50 17 27 1014.8 1014.4 0.0
01/07:30am 11.3 4.5 6.7 73 2.2 W 32 46 17 25 1014.7 1014.3 0.0
01/07:00am 11.1 3.8 7.4 78 1.8 W 35 46 19 25 1014.5 1014.1 0.0
01/06:30am 10.8 4.1 8.0 83 1.4 W 33 48 18 26 1014.0 1013.6 0.0
01/06:00am 11.1 5.2 9.1 87 1.0 W 30 46 16 25 1014.0 1013.6 0.0
01/05:33am 10.7 4.3 8.7 87 1.0 W 32 50 17 27 1013.5 1013.1 0.0
01/05:30am 10.7 4.1 8.7 87 1.0 W 33 50 18 27 1013.5 1013.1 0.0
01/05:00am 11.4 4.3 8.2 81 1.6 WNW 35 59 19 32 1013.1 1012.7 0.0
01/04:43am 11.4 5.0 9.2 86 1.1 WNW 33 52 18 28 1012.5 1012.1 0.0
01/04:30am 11.9 5.3 8.7 81 1.6 WNW 33 46 18 25 1012.4 1012.0 0.0
01/04:08am 11.9 5.4 8.1 77 1.9 WNW 32 52 17 28 1012.2 1011.8 0.0
01/04:00am 11.9 5.5 8.5 80 1.7 WNW 32 44 17 24 1012.1 1011.7 0.0
01/03:30am 12.4 7.8 9.7 83 1.4 WNW 24 39 13 21 1012.0 1011.6 0.0
01/03:00am 12.4 8.2 9.7 83 1.4 WNW 22 33 12 18 1011.9 1011.5 0.0
01/02:30am 12.6 8.3 9.5 81 1.6 WNW 22 35 12 19 1011.6 1011.2 0.0
01/02:00am 12.9 9.0 9.6 80 1.7 W 20 33 11 18 1011.5 1011.1 0.0
01/01:30am 12.9 7.7 10.2 84 1.4 W 28 37 15 20 1011.4 1011.0 0.0
01/01:00am 13.3 8.1 10.3 82 1.6 W 28 41 15 22 1011.1 1010.6 0.0
01/12:30am 13.7 8.5 10.1 79 1.9 W 28 41 15 22 1010.6 1010.1 0.0
01/12:08am 13.9 8.2 9.9 77 2.1 WNW 30 48 16 26 1010.3 1009.9 0.0
01/12:00am 14.0 8.4 10.0 77 2.1 WNW 30 41 16 22 1010.5 1010.0 0.0
 
Date/Time
CST
Temp
°C
App
Temp
°C
Dew
Point
Rel
Hum
%
Delta-T
°C
Wind Press
QNH
hPa
Press
MSL
hPa
Rain
since 9 am
mm
Dir
 
Spd
km/h
Gust
km/h
Spd
kts
Gust
kts
30/11:30pm 13.9 8.2 9.9 77 2.1 WNW 30 41 16 22 1010.5 1010.0 0.0
30/11:00pm 14.2 7.9 9.0 71 2.7 W 32 50 17 27 1010.2 1009.8 0.0
30/10:34pm 14.9 8.5 8.5 65 3.3 W 32 54 17 29 1010.0 1009.6 0.0
30/10:30pm 15.0 8.6 8.6 65 3.3 W 32 44 17 24 1009.8 1009.4 0.0
30/10:00pm 15.6 10.5 9.3 66 3.3 W 26 41 14 22 1010.2 1009.8 0.0
30/09:30pm 16.5 10.8 9.7 64 3.6 W 30 48 16 26 1011.0 1010.5 0.0
30/09:00pm 16.0 9.7 11.0 72 2.7 WSW 35 54 19 29 1009.7 1009.3 0.0
30/08:30pm 18.6 12.2 9.4 55 4.9 W 33 61 18 33 1009.2 1008.8 0.0
30/08:10pm 19.6 11.7 6.4 42 6.7 W 37 57 20 31 1008.4 1008.0 0.0
30/08:04pm 21.2 16.4 8.9 45 6.6 WNW 24 57 13 31 1008.1 1007.7 0.0
30/08:00pm 21.6 18.0 9.7 46 6.5 WNW 19 28 10 15 1007.5 1007.0 0.0
30/07:30pm 22.2 18.3 9.6 44 6.9 NW 20 28 11 15 1007.3 1006.8 0.0
30/07:00pm 22.5 18.8 9.3 43 7.2 NNW 19 28 10 15 1007.5 1007.0 0.0
30/06:30pm 22.4 19.3 8.9 42 7.3 NNW 15 24 8 13 1007.6 1007.1 0.0
30/06:00pm 22.9 18.7 7.6 37 8.1 NW 19 30 10 16 1007.8 1007.3 0.0
30/05:30pm 23.0 18.5 6.2 33 8.7 NW 19 28 10 15 1007.8 1007.3 0.0
30/05:00pm 23.8 18.4 4.3 28 9.8 NW 22 37 12 20 1007.7 1007.2 0.0
30/04:30pm 24.3 17.4 2.6 24 10.6 NW 28 46 15 25 1007.9 1007.4 0.0
30/04:24pm 24.4 17.3 1.4 22 11.0 NW 28 46 15 25 1008.1 1007.7 0.0
30/04:00pm 24.8 17.6 0.7 20 11.4 NW 28 43 15 23 1008.1 1007.7 0.0
30/03:31pm 25.0 17.5 1.1 21 11.4 NW 30 48 16 26 1008.3 1007.9 0.0
30/03:30pm 25.0 17.5 1.1 21 11.4 NW 30 46 16 25 1008.3 1007.9 0.0
30/03:07pm 24.9 17.5 2.0 22 11.1 NW 30 48 16 26 1008.5 1008.1 0.0
30/03:00pm 25.1 18.1 2.1 22 11.2 NW 28 43 15 23 1008.6 1008.2 0.0
30/02:43pm 25.1 18.0 1.3 21 11.4 NW 28 52 15 28 1008.9 1008.5 0.0
30/02:30pm 25.2 18.1 1.5 21 11.4 NW 28 41 15 22 1009.0 1008.6 0.0
30/02:00pm 25.1 17.7 1.7 21 11.3 NW 30 43 16 23 1009.3 1008.9 0.0
30/01:31pm 24.8 17.9 2.5 23 10.9 NW 28 46 15 25 1009.7 1009.3 0.0
30/01:30pm 24.5 17.9 1.9 23 10.9 NW 26 46 14 25 1009.7 1009.3 0.0
30/01:00pm 24.8 19.5 3.2 24 10.7 NNW 20 32 11 17 1010.3 1009.9 0.0
30/12:30pm 23.4 17.1 1.8 24 10.3 NW 24 44 13 24 1011.1 1010.6 0.0
30/12:00pm 23.3 16.5 0.5 22 10.6 NW 26 41 14 22 1011.9 1011.5 0.0
30/11:30am 22.9 17.9 4.8 30 9.1 NNW 20 33 11 18 1012.3 1011.9 0.0
30/11:00am 22.3 17.2 5.9 34 8.4 NNW 22 35 12 19 1013.1 1012.7 0.0
30/10:30am 21.9 18.0 8.7 42 7.1 NNW 19 28 10 15 1013.5 1013.1 0.0
30/10:00am 20.8 18.4 10.2 50 5.8 N 13 19 7 10 1013.7 1013.3 0.0
30/09:30am 19.3 17.8 10.7 57 4.7 N 9 15 5 8 1013.9 1013.5 0.0
30/09:00am 17.2 16.1 10.8 66 3.5 NNE 7 11 4 6 1014.1 1013.7 0.2
30/08:30am 14.7 13.4 11.2 79 1.9 NE 9 11 5 6 1014.4 1014.0 0.2
30/08:00am 13.2 12.3 11.3 88 1.0 NE 7 9 4 5 1014.4 1014.0 0.2
30/07:30am 10.9 9.3 10.1 95 0.4 NE 9 11 5 6 1014.3 1013.8 0.2
30/07:00am 9.8 8.0 9.4 97 0.2 NE 9 11 5 6 1014.1 1013.7 0.2
30/06:30am 9.6 8.1 9.2 97 0.2 NE 7 9 4 5 1014.0 1013.6 0.2
30/06:00am 9.2 7.3 9.0 99 0.1 NNE 9 11 5 6 1014.0 1013.6 0.2
30/05:30am 9.0 7.4 8.8 99 0.1 NNE 7 9 4 5 1013.9 1013.5 0.2
30/05:00am 9.4 7.9 9.2 99 0.1 NE 7 9 4 5 1013.6 1013.2 0.2
30/04:30am 9.4 7.9 9.2 99 0.1 NE 7 9 4 5 1013.4 1013.0 0.2
30/04:00am 9.4 8.8 9.0 97 0.2 NNE 2 7 1 4 1013.3 1012.9 0.2
30/03:30am 9.1 7.5 8.9 99 0.1 NE 7 9 4 5 1013.4 1013.0 0.2
30/03:00am 9.3 7.9 8.7 96 0.3 NE 6 9 3 5 1013.3 1012.9 0.2
30/02:30am 9.6 9.4 9.2 97 0.2 CALM 0 0 0 0 1013.3 1012.9 0.2
30/02:00am 10.3 9.0 9.9 97 0.2 NE 7 9 4 5 1013.3 1012.9 0.2
30/01:30am 10.5 8.8 9.9 96 0.3 ENE 9 9 5 5 1013.5 1013.1 0.2
30/01:00am 10.8 10.9 10.2 96 0.3 CALM 0 0 0 0 1013.8 1013.4 0.2
30/12:30am 11.3 11.5 10.7 96 0.3 CALM 0 0 0 0 1013.7 1013.3 0.2
30/12:00am 11.8 11.0 11.2 96 0.3 NE 6 7 3 4 1013.6 1013.2 0.2
 
Date/Time
CST
Temp
°C
App
Temp
°C
Dew
Point
Rel
Hum
%
Delta-T
°C
Wind Press
QNH
hPa
Press
MSL
hPa
Rain
since 9 am
mm
Dir
 
Spd
km/h
Gust
km/h
Spd
kts
Gust
kts
29/11:30pm 11.9 10.9 11.1 95 0.4 NE 7 9 4 5 1013.6 1013.2 0.2
29/11:00pm 12.0 12.4 11.2 95 0.4 CALM 0 0 0 0 1013.7 1013.3 0.2
29/10:30pm 11.8 12.1 11.0 95 0.4 CALM 0 0 0 0 1013.8 1013.4 0.2
29/10:00pm 12.6 12.4 11.7 94 0.5 NE 4 7 2 4 1013.8 1013.4 0.2
29/09:30pm 12.1 12.5 11.4 95 0.4 CALM 0 0 0 0 1014.0 1013.6 0.2
29/09:00pm 12.8 12.3 11.9 94 0.5 ENE 6 7 3 4 1013.7 1013.3 0.2
29/08:30pm 13.2 12.7 12.1 93 0.6 ENE 6 6 3 3 1013.6 1013.2 0.2
29/08:00pm 13.9 13.5 12.4 91 0.8 ENE 6 7 3 4 1013.4 1013.0 0.2
29/07:30pm 14.2 15.0 12.4 89 1.0 CALM 0 0 0 0 1013.2 1012.8 0.2
29/07:00pm 15.1 15.8 12.2 83 1.6 CALM 0 0 0 0 1013.0 1012.6 0.2
29/06:30pm 17.0 16.8 12.9 77 2.3 NW 6 6 3 3 1012.9 1012.5 0.2
29/06:00pm 19.0 18.6 12.9 67 3.5 W 7 11 4 6 1012.6 1012.2 0.2
29/05:30pm 20.3 18.9 12.2 59 4.6 W 11 15 6 8 1012.5 1012.1 0.2
29/05:00pm 20.7 18.4 11.6 56 5.1 W 15 20 8 11 1012.3 1011.9 0.2
29/04:30pm 21.5 18.1 10.5 49 6.1 WNW 19 28 10 15 1012.2 1011.8 0.2
29/04:00pm 22.0 18.6 11.1 50 6.1 WNW 20 30 11 16 1012.1 1011.7 0.2
29/03:30pm 22.2 19.1 11.6 51 6.0 WNW 19 28 10 15 1012.0 1011.6 0.2
29/03:00pm 22.5 22.9 22.5 100 0.0 WNW 24 35 13 19 1011.6 1011.2 0.2
29/02:30pm 21.9 23.0 21.9 100 0.0 WNW 19 28 10 15 1011.5 1011.1 0.2
29/02:00pm 21.5 22.2 21.5 100 0.0 WNW 20 33 11 18 1011.6 1011.2 0.0
29/01:30pm 20.6 19.3 20.6 100 0.0 WNW 28 37 15 20 1011.8 1011.4 0.0
29/01:00pm 21.4 21.3 21.4 100 0.0 WNW 24 37 13 20 1011.8 1011.4 0.0
29/12:30pm 20.6 19.7 20.6 100 0.0 NW 26 39 14 21 1012.1 1011.7 0.0
29/12:00pm 20.6 20.7 20.4 99 0.1 NW 20 33 11 18 1012.3 1011.9 0.0
29/11:30am 19.8 21.2 19.5 98 0.2 N 11 17 6 9 1012.8 1012.4 0.0
29/11:00am 17.7 18.3 17.7 100 0.0 N 11 17 6 9 1013.2 1012.8 0.0
29/10:30am 17.0 17.7 17.0 100 0.0 NNE 9 15 5 8 1013.5 1013.1 0.0
29/10:00am 16.6 16.4 16.6 100 0.0 N 13 19 7 10 1013.7 1013.3 0.0
29/09:30am 16.7 16.1 16.7 100 0.0 N 15 28 8 15 1013.6 1013.2 0.0
29/09:00am 16.1 16.4 15.9 99 0.1 N 9 17 5 9 1013.7 1013.3 3.6
29/08:30am 15.2 15.6 15.2 100 0.0 NE 7 9 4 5 1013.6 1013.2 3.6
29/08:00am 14.7 14.5 14.7 100 0.0 ENE 9 11 5 6 1013.4 1013.0 3.6
29/07:30am 14.5 14.2 14.5 100 0.0 ENE 9 11 5 6 1013.7 1013.3 3.6
29/07:00am 14.5 15.9 14.5 100 0.0 CALM 0 0 0 0 1014.0 1013.6 3.4
29/06:30am 14.7 16.2 14.7 100 0.0 CALM 0 0 0 0 1013.8 1013.4 3.2
29/06:00am 14.7 15.5 14.7 100 0.0 ENE 4 9 2 5 1013.6 1013.2 2.8
29/05:30am 14.8 15.0 14.8 100 0.0 SW 7 9 4 5 1013.8 1013.4 2.8
29/05:00am 15.0 14.2 15.0 100 0.0 SW 13 17 7 9 1013.9 1013.5 2.6
29/04:30am 15.2 14.4 15.2 100 0.0 SW 13 17 7 9 1014.0 1013.6 2.4
29/04:00am 15.2 14.4 15.2 100 0.0 SW 13 15 7 8 1014.0 1013.6 2.0
29/03:30am 16.4 16.1 16.4 100 0.0 W 13 19 7 10 1014.3 1013.8 2.0

Other Formats:

Comma delimited format used in spreadsheet applications
http://www.bom.gov.au/fwo/IDS60801/IDS60801.94681.axf

JavaScript Object Notation format (JSON) in row-major order
http://www.bom.gov.au/fwo/IDS60801/IDS60801.94681.json